createdAt,value
2019-04-16T00:00:52.041Z,0.00
2019-04-16T00:01:52.071Z,0.00
2019-04-16T00:02:52.229Z,0.00
2019-04-16T00:03:54.036Z,0.00
2019-04-16T00:04:53.651Z,0.00
2019-04-16T00:05:52.180Z,0.00
2019-04-16T00:06:52.207Z,0.00
2019-04-16T00:07:52.240Z,0.00
2019-04-16T00:08:54.129Z,0.00
2019-04-16T00:09:52.294Z,0.00
2019-04-16T00:10:52.322Z,0.00
2019-04-16T00:11:52.349Z,0.00
2019-04-16T00:12:52.378Z,0.00
2019-04-16T00:13:52.405Z,0.00
2019-04-16T00:14:52.433Z,0.00
2019-04-16T00:15:52.463Z,0.00
2019-04-16T00:16:52.490Z,0.00
2019-04-16T00:17:52.519Z,0.00
2019-04-16T00:18:57.909Z,0.00
2019-04-16T00:19:52.575Z,0.00
2019-04-16T00:20:52.603Z,0.00
2019-04-16T00:21:52.632Z,0.00
2019-04-16T00:22:52.664Z,0.00
2019-04-16T00:23:52.691Z,0.00
2019-04-16T00:24:52.718Z,0.00
2019-04-16T00:25:55.594Z,0.00
2019-04-16T00:26:57.836Z,0.00
2019-04-16T00:27:52.801Z,0.00
2019-04-16T00:28:52.830Z,0.00
2019-04-16T00:29:52.857Z,0.00
2019-04-16T00:30:52.885Z,0.00
2019-04-16T00:31:52.915Z,0.00
2019-04-16T00:32:52.943Z,0.00
2019-04-16T00:33:52.970Z,0.00
2019-04-16T00:34:52.998Z,0.00
2019-04-16T00:35:53.026Z,0.00
2019-04-16T00:36:53.081Z,0.00
2019-04-16T00:37:53.082Z,0.00
2019-04-16T00:38:54.139Z,0.00
2019-04-16T00:39:55.744Z,0.00
2019-04-16T00:40:53.168Z,0.00
2019-04-16T00:41:53.198Z,0.00
2019-04-16T00:42:53.223Z,0.00
2019-04-16T00:43:53.252Z,0.00
2019-04-16T00:44:53.281Z,0.00
2019-04-16T00:45:53.307Z,0.00
2019-04-16T00:46:53.340Z,0.00
2019-04-16T00:47:53.363Z,0.00
2019-04-16T00:48:53.442Z,0.00
2019-04-16T00:49:57.563Z,0.00
2019-04-16T00:50:53.447Z,0.00
2019-04-16T00:51:53.476Z,0.00
2019-04-16T00:52:53.507Z,0.00
2019-04-16T00:53:53.533Z,0.00
2019-04-16T00:54:53.563Z,0.00
2019-04-16T00:55:53.589Z,0.00
2019-04-16T00:56:53.618Z,0.00
2019-04-16T00:57:53.646Z,0.00
2019-04-16T00:58:53.680Z,0.00
2019-04-16T00:59:56.089Z,0.00
2019-04-16T01:00:53.752Z,0.00
2019-04-16T01:01:53.756Z,0.00
2019-04-16T01:02:53.785Z,0.00
2019-04-16T01:03:53.812Z,0.00
2019-04-16T01:04:53.840Z,0.00
2019-04-16T01:05:53.867Z,0.00
2019-04-16T01:06:54.225Z,0.00
2019-04-16T01:07:53.948Z,0.00
2019-04-16T01:08:55.195Z,0.00
2019-04-16T01:09:53.981Z,0.00
2019-04-16T01:10:54.009Z,0.00
2019-04-16T01:11:54.058Z,0.00
2019-04-16T01:12:54.087Z,0.00
2019-04-16T01:13:55.731Z,0.00
2019-04-16T01:14:58.863Z,0.00
2019-04-16T01:15:54.171Z,0.00
2019-04-16T01:16:54.180Z,0.00
2019-04-16T01:17:54.202Z,0.00
2019-04-16T01:18:54.230Z,0.00
2019-04-16T01:19:54.258Z,0.00
2019-04-16T01:20:54.287Z,0.00
2019-04-16T01:21:54.314Z,0.00
2019-04-16T01:22:54.341Z,0.00
2019-04-16T01:23:54.369Z,0.00
2019-04-16T01:24:54.398Z,0.00
2019-04-16T01:25:55.532Z,0.00
2019-04-16T01:26:55.425Z,0.00
2019-04-16T01:27:54.494Z,0.00
2019-04-16T01:28:54.508Z,0.00
2019-04-16T01:29:54.536Z,0.00
2019-04-16T01:30:54.567Z,0.00
2019-04-16T01:31:54.591Z,0.00
2019-04-16T01:32:54.619Z,0.00
2019-04-16T01:33:54.647Z,0.00
2019-04-16T01:34:54.698Z,0.00
2019-04-16T01:35:54.825Z,0.00
2019-04-16T01:36:54.997Z,0.00
2019-04-16T01:37:56.807Z,0.00
2019-04-16T01:39:54.836Z,0.00
2019-04-16T01:40:54.865Z,0.00
2019-04-16T01:41:54.889Z,0.00
2019-04-16T01:42:55.312Z,0.00
2019-04-16T01:44:59.371Z,0.00
2019-04-16T01:45:55.309Z,0.00
2019-04-16T01:46:55.034Z,0.00
2019-04-16T01:47:55.259Z,0.00
2019-04-16T01:49:55.117Z,0.00
2019-04-16T01:50:55.116Z,0.00
2019-04-16T01:51:55.347Z,0.00
2019-04-16T01:52:55.174Z,0.00
2019-04-16T01:53:55.202Z,0.00
2019-04-16T01:54:55.683Z,0.00
2019-04-16T01:55:56.961Z,0.00
2019-04-16T01:56:59.486Z,0.00
2019-04-16T01:57:55.311Z,0.00
2019-04-16T01:58:55.361Z,0.00
2019-04-16T01:59:55.366Z,0.00
2019-04-16T02:00:55.393Z,0.00
2019-04-16T02:01:55.427Z,0.00
2019-04-16T02:02:55.448Z,0.00
2019-04-16T02:03:55.476Z,0.00
2019-04-16T02:04:55.504Z,0.00
2019-04-16T02:05:55.635Z,0.00
2019-04-16T02:06:57.277Z,0.00
2019-04-16T02:07:56.328Z,0.00
2019-04-16T02:08:55.626Z,0.00
2019-04-16T02:09:55.641Z,0.00
2019-04-16T02:10:55.671Z,0.00
2019-04-16T02:11:55.708Z,0.00
2019-04-16T02:12:55.725Z,0.00
2019-04-16T02:13:55.752Z,0.00
2019-04-16T02:14:55.779Z,0.00
2019-04-16T02:15:55.809Z,0.00
2019-04-16T02:16:56.645Z,0.00
2019-04-16T02:17:58.857Z,0.00
2019-04-16T02:19:00.815Z,0.00
2019-04-16T02:19:55.918Z,0.00
2019-04-16T02:20:55.945Z,0.00
2019-04-16T02:21:55.971Z,0.00
2019-04-16T02:22:56.000Z,0.00
2019-04-16T02:23:56.029Z,0.00
2019-04-16T02:24:56.055Z,0.00
2019-04-16T02:25:56.082Z,0.00
2019-04-16T02:26:56.107Z,0.00
2019-04-16T02:27:57.074Z,0.00
2019-04-16T02:28:56.470Z,0.00
2019-04-16T02:29:58.581Z,0.00
2019-04-16T02:30:56.218Z,0.00
2019-04-16T02:31:56.252Z,0.00
2019-04-16T02:32:56.274Z,0.00
2019-04-16T02:33:56.301Z,0.00
2019-04-16T02:34:56.461Z,0.00
2019-04-16T02:35:56.356Z,0.00
2019-04-16T02:37:00.868Z,0.00
2019-04-16T02:37:56.417Z,0.00
2019-04-16T02:38:56.447Z,0.00
2019-04-16T02:39:56.475Z,0.00
2019-04-16T02:40:56.497Z,0.00
2019-04-16T02:41:58.090Z,0.00
2019-04-16T02:42:56.556Z,0.00
2019-04-16T02:43:56.576Z,0.00
2019-04-16T02:44:56.621Z,0.00
2019-04-16T02:45:58.402Z,0.00
2019-04-16T02:46:56.658Z,0.00
2019-04-16T02:47:56.682Z,0.00
2019-04-16T02:48:56.914Z,0.00
2019-04-16T02:49:57.957Z,0.00
2019-04-16T02:50:56.766Z,0.00
2019-04-16T02:51:56.792Z,0.00
2019-04-16T02:52:56.823Z,0.00
2019-04-16T02:53:58.761Z,0.00
2019-04-16T02:54:56.873Z,0.00
2019-04-16T02:55:56.904Z,0.00
2019-04-16T02:56:56.931Z,0.00
2019-04-16T02:58:00.275Z,0.00
2019-04-16T02:58:56.982Z,0.00
2019-04-16T02:59:57.015Z,0.00
2019-04-16T03:00:57.038Z,0.00
2019-04-16T03:01:57.061Z,0.00
2019-04-16T03:02:57.092Z,0.00
2019-04-16T03:03:57.118Z,0.00
2019-04-16T03:04:58.428Z,0.00
2019-04-16T03:06:00.709Z,0.00
2019-04-16T03:06:57.197Z,0.00
2019-04-16T03:07:57.225Z,0.00
2019-04-16T03:08:57.252Z,0.00
2019-04-16T03:10:01.483Z,0.00
2019-04-16T03:10:57.308Z,0.00
2019-04-16T03:11:57.334Z,0.00
2019-04-16T03:12:57.362Z,0.00
2019-04-16T03:13:59.368Z,0.00
2019-04-16T03:15:00.834Z,0.00
2019-04-16T03:15:57.443Z,0.00
2019-04-16T03:16:57.468Z,0.00
2019-04-16T03:17:57.494Z,0.00
2019-04-16T03:18:57.520Z,0.00
2019-04-16T03:19:57.548Z,0.00
2019-04-16T03:20:57.575Z,0.00
2019-04-16T03:21:59.176Z,0.00
2019-04-16T03:22:57.629Z,0.00
2019-04-16T03:23:57.660Z,0.00
2019-04-16T03:24:57.684Z,0.00
2019-04-16T03:25:57.709Z,0.00
2019-04-16T03:26:57.737Z,0.00
2019-04-16T03:27:57.766Z,0.00
2019-04-16T03:28:59.152Z,0.00
2019-04-16T03:30:02.999Z,0.00
2019-04-16T03:30:57.845Z,0.00
2019-04-16T03:31:59.559Z,0.00
2019-04-16T03:32:57.899Z,0.00
2019-04-16T03:33:57.934Z,0.00
2019-04-16T03:34:57.978Z,0.00
2019-04-16T03:35:58.612Z,0.00
2019-04-16T03:36:58.650Z,0.00
2019-04-16T03:37:58.032Z,0.00
2019-04-16T03:38:58.059Z,0.00
2019-04-16T03:39:58.085Z,0.00
2019-04-16T03:40:58.112Z,0.00
2019-04-16T03:41:58.141Z,0.00
2019-04-16T03:42:59.367Z,0.00
2019-04-16T03:43:58.193Z,0.00
2019-04-16T03:44:58.220Z,0.00
2019-04-16T03:45:58.246Z,0.00
2019-04-16T03:46:58.273Z,0.00
2019-04-16T03:47:58.299Z,0.00
2019-04-16T03:48:58.326Z,0.00
2019-04-16T03:49:59.470Z,0.00
2019-04-16T03:51:00.454Z,0.00
2019-04-16T03:51:58.406Z,0.00
2019-04-16T03:52:58.436Z,0.00
2019-04-16T03:53:58.461Z,0.00
2019-04-16T03:54:58.485Z,0.00
2019-04-16T03:55:59.159Z,0.00
2019-04-16T03:57:01.840Z,0.00
2019-04-16T03:57:58.566Z,0.00
2019-04-16T03:58:58.591Z,0.00
2019-04-16T04:00:00.784Z,0.00
2019-04-16T04:01:45.484Z,0.00
2019-04-16T04:02:41.217Z,0.00
2019-04-16T04:03:41.245Z,0.00
2019-04-16T04:04:41.267Z,0.00
2019-04-16T04:05:41.295Z,0.00
2019-04-16T04:06:41.324Z,4.00
2019-04-16T04:07:44.342Z,0.00
2019-04-16T04:08:41.375Z,4.00
2019-04-16T04:09:41.401Z,4.00
2019-04-16T04:10:41.427Z,4.00
2019-04-16T04:11:42.026Z,4.00
2019-04-16T04:12:42.640Z,4.00
2019-04-16T04:13:41.507Z,4.00
2019-04-16T04:14:41.534Z,8.00
2019-04-16T04:15:41.560Z,8.00
2019-04-16T04:16:41.588Z,8.00
2019-04-16T04:17:41.613Z,12.00
2019-04-16T04:18:43.182Z,12.00
2019-04-16T04:19:45.641Z,16.00
2019-04-16T04:20:41.690Z,20.00
2019-04-16T04:21:41.721Z,24.00
2019-04-16T04:22:41.746Z,24.00
2019-04-16T04:23:41.772Z,32.00
2019-04-16T04:24:41.797Z,40.00
2019-04-16T04:25:41.826Z,44.00
2019-04-16T04:26:42.413Z,52.00
2019-04-16T04:27:43.649Z,64.00
2019-04-16T04:28:41.904Z,76.00
2019-04-16T04:29:41.932Z,84.00
2019-04-16T04:30:41.957Z,100.00
2019-04-16T04:31:41.986Z,116.00
2019-04-16T04:32:42.010Z,128.00
2019-04-16T04:33:43.071Z,144.00
2019-04-16T04:34:42.064Z,164.00
2019-04-16T04:35:42.097Z,184.00
2019-04-16T04:36:42.116Z,204.00
2019-04-16T04:37:42.144Z,224.00
2019-04-16T04:38:42.170Z,248.00
2019-04-16T04:39:44.121Z,268.00
2019-04-16T04:40:44.772Z,296.00
2019-04-16T04:41:42.250Z,320.00
2019-04-16T04:42:42.278Z,348.00
2019-04-16T04:43:42.305Z,380.00
2019-04-16T04:44:42.333Z,416.00
2019-04-16T04:45:42.356Z,448.00
2019-04-16T04:46:43.178Z,480.00
2019-04-16T04:47:42.410Z,512.00
2019-04-16T04:48:42.436Z,544.00
2019-04-16T04:49:42.464Z,580.00
2019-04-16T04:50:42.491Z,616.00
2019-04-16T04:51:43.633Z,664.00
2019-04-16T04:52:43.200Z,720.00
2019-04-16T04:53:43.895Z,772.00
2019-04-16T04:54:42.597Z,832.00
2019-04-16T04:55:42.622Z,896.00
2019-04-16T04:56:42.648Z,948.00
2019-04-16T04:57:42.676Z,984.00
2019-04-16T04:58:42.703Z,1016.00
2019-04-16T04:59:42.730Z,1064.00
2019-04-16T05:00:42.756Z,1112.00
2019-04-16T05:01:42.783Z,1168.00
2019-04-16T05:02:43.804Z,1216.00
2019-04-16T05:03:44.434Z,1236.00
2019-04-16T05:04:42.864Z,1232.00
2019-04-16T05:05:42.889Z,1256.00
2019-04-16T05:06:42.916Z,1280.00
2019-04-16T05:07:42.944Z,1320.00
2019-04-16T05:08:42.980Z,1364.00
2019-04-16T05:09:42.997Z,1400.00
2019-04-16T05:10:44.049Z,1424.00
2019-04-16T05:11:43.053Z,1428.00
2019-04-16T05:12:43.078Z,1456.00
2019-04-16T05:13:43.104Z,1500.00
2019-04-16T05:14:43.133Z,1556.00
2019-04-16T05:15:43.159Z,1616.00
2019-04-16T05:16:43.185Z,1680.00
2019-04-16T05:17:43.211Z,1756.00
2019-04-16T05:18:43.239Z,1860.00
2019-04-16T05:19:43.867Z,1944.00
2019-04-16T05:20:46.692Z,1992.00
2019-04-16T05:21:43.327Z,2064.00
2019-04-16T05:22:43.353Z,2156.00
2019-04-16T05:23:43.374Z,2228.00
2019-04-16T05:24:43.400Z,2292.00
2019-04-16T05:25:43.427Z,2352.00
2019-04-16T05:26:43.454Z,2456.00
2019-04-16T05:27:43.482Z,2564.00
2019-04-16T05:28:45.503Z,2644.00
2019-04-16T05:29:43.536Z,2660.00
2019-04-16T05:30:43.562Z,2612.00
2019-04-16T05:31:43.596Z,2508.00
2019-04-16T05:32:43.617Z,2464.00
2019-04-16T05:33:43.644Z,2440.00
2019-04-16T05:34:43.675Z,2428.00
2019-04-16T05:35:43.699Z,2432.00
2019-04-16T05:36:47.544Z,2476.00
2019-04-16T05:37:43.753Z,2360.00
2019-04-16T05:38:46.895Z,2328.00
2019-04-16T05:39:43.809Z,2340.00
2019-04-16T05:40:43.839Z,2388.00
2019-04-16T05:41:43.861Z,2448.00
2019-04-16T05:42:43.895Z,2512.00
2019-04-16T05:43:43.916Z,2556.00
2019-04-16T05:44:43.945Z,2620.00
2019-04-16T05:45:43.971Z,2712.00
2019-04-16T05:46:46.647Z,2812.00
2019-04-16T05:47:48.779Z,2940.00
2019-04-16T05:48:44.051Z,3104.00
2019-04-16T05:49:44.079Z,3176.00
2019-04-16T05:50:44.106Z,3212.00
2019-04-16T05:51:44.134Z,3324.00
2019-04-16T05:52:44.161Z,3372.00
2019-04-16T05:53:44.188Z,3416.00
2019-04-16T05:54:45.277Z,3424.00
2019-04-16T05:55:44.244Z,3424.00
2019-04-16T05:56:44.270Z,3376.00
2019-04-16T05:57:44.299Z,3540.00
2019-04-16T05:58:44.325Z,3632.00
2019-04-16T05:59:44.355Z,3712.00
2019-04-16T06:00:44.382Z,3772.00
2019-04-16T06:01:45.369Z,3844.00
2019-04-16T06:02:44.456Z,3904.00
2019-04-16T06:03:44.463Z,3940.00
2019-04-16T06:04:44.489Z,3960.00
2019-04-16T06:05:44.517Z,3996.00
2019-04-16T06:06:44.546Z,4068.00
2019-04-16T06:07:44.574Z,4168.00
2019-04-16T06:08:44.601Z,4260.00
2019-04-16T06:09:45.298Z,4312.00
2019-04-16T06:10:49.675Z,4360.00
2019-04-16T06:11:44.683Z,4412.00
2019-04-16T06:12:44.712Z,4468.00
2019-04-16T06:13:45.248Z,4540.00
2019-04-16T06:14:46.451Z,4564.00
2019-04-16T06:15:44.794Z,4616.00
2019-04-16T06:16:44.823Z,4652.00
2019-04-16T06:17:44.927Z,4700.00
2019-04-16T06:18:44.878Z,4736.00
2019-04-16T06:19:46.829Z,4760.00
2019-04-16T06:20:44.933Z,4828.00
2019-04-16T06:21:44.963Z,4860.00
2019-04-16T06:22:44.990Z,4900.00
2019-04-16T06:23:48.039Z,4932.00
2019-04-16T06:24:45.046Z,5008.00
2019-04-16T06:25:45.074Z,5076.00
2019-04-16T06:26:47.411Z,5144.00
2019-04-16T06:27:45.132Z,5176.00
2019-04-16T06:28:45.158Z,5224.00
2019-04-16T06:29:47.062Z,5264.00
2019-04-16T06:30:45.217Z,5324.00
2019-04-16T06:31:45.243Z,5348.00
2019-04-16T06:32:45.270Z,5388.00
2019-04-16T06:33:45.300Z,5452.00
2019-04-16T06:34:45.330Z,5504.00
2019-04-16T06:35:45.357Z,5564.00
2019-04-16T06:36:45.383Z,5612.00
2019-04-16T06:37:45.778Z,5672.00
2019-04-16T06:38:45.440Z,5732.00
2019-04-16T06:39:45.469Z,5788.00
2019-04-16T06:40:45.497Z,5828.00
2019-04-16T06:41:48.369Z,5868.00
2019-04-16T06:42:45.554Z,5928.00
2019-04-16T06:43:45.586Z,5988.00
2019-04-16T06:44:45.612Z,6052.00
2019-04-16T06:45:45.641Z,6116.00
2019-04-16T06:46:45.669Z,6180.00
2019-04-16T06:47:45.698Z,6256.00
2019-04-16T06:48:45.980Z,6308.00
2019-04-16T06:49:48.145Z,6392.00
2019-04-16T06:50:45.834Z,6464.00
2019-04-16T06:51:45.818Z,6540.00
2019-04-16T06:52:46.157Z,6640.00
2019-04-16T06:53:45.872Z,6724.00
2019-04-16T06:54:45.901Z,6812.00
2019-04-16T06:55:45.929Z,6892.00
2019-04-16T06:56:45.956Z,7048.00
2019-04-16T06:57:45.986Z,7288.00
2019-04-16T06:59:46.047Z,7852.00
2019-04-16T07:00:46.075Z,8172.00
2019-04-16T07:01:41.796Z,7568.00
2019-04-16T07:01:46.103Z,8616.00
2019-04-16T07:03:01.288Z,9116.00
2019-04-16T07:03:46.162Z,9856.00
2019-04-16T07:04:46.190Z,10648.00
2019-04-16T07:05:46.221Z,11448.00
2019-04-16T07:06:46.249Z,12252.00
2019-04-16T07:07:47.036Z,12776.00
2019-04-16T07:08:49.784Z,13004.00
2019-04-16T07:09:46.338Z,12916.00
2019-04-16T07:10:46.375Z,12556.00
2019-04-16T07:11:54.224Z,12048.00
2019-04-16T07:12:46.506Z,11148.00
2019-04-16T07:13:46.459Z,9888.00
2019-04-16T07:14:48.320Z,9332.00
2019-04-16T07:15:46.519Z,8976.00
2019-04-16T07:16:46.548Z,8532.00
2019-04-16T07:17:46.579Z,8320.00
2019-04-16T07:18:46.611Z,8196.00
2019-04-16T07:19:46.640Z,8564.00
2019-04-16T07:20:46.736Z,8060.00
2019-04-16T07:21:49.630Z,7900.00
2019-04-16T07:22:46.732Z,8252.00
2019-04-16T07:23:47.110Z,8620.00
2019-04-16T07:24:46.853Z,8896.00
2019-04-16T07:25:47.305Z,9232.00
2019-04-16T07:26:48.293Z,9548.00
2019-04-16T07:27:52.098Z,10152.00
2019-04-16T07:28:46.915Z,10380.00
2019-04-16T07:29:47.109Z,11060.00
2019-04-16T07:30:47.034Z,11116.00
2019-04-16T07:31:47.034Z,10640.00
2019-04-16T07:32:47.038Z,9388.00
2019-04-16T07:33:47.069Z,9688.00
2019-04-16T07:34:47.100Z,10108.00
2019-04-16T07:35:47.132Z,8888.00
2019-04-16T07:36:47.161Z,8888.00
2019-04-16T07:37:47.193Z,8952.00
2019-04-16T07:38:47.225Z,8888.00
2019-04-16T07:39:47.260Z,8828.00
2019-04-16T07:40:47.287Z,8956.00
2019-04-16T07:41:47.318Z,9104.00
2019-04-16T07:43:47.060Z,9400.00
2019-04-16T07:43:47.618Z,9640.00
2019-04-16T07:44:47.411Z,9876.00
2019-04-16T07:45:47.443Z,10768.00
2019-04-16T07:46:47.911Z,10336.00
2019-04-16T07:47:48.379Z,11852.00
2019-04-16T07:48:47.537Z,12496.00
2019-04-16T07:49:47.569Z,12368.00
2019-04-16T07:50:47.602Z,13184.00
2019-04-16T07:51:47.632Z,12760.00
2019-04-16T07:52:47.665Z,13040.00
2019-04-16T07:53:48.128Z,13960.00
2019-04-16T07:54:47.728Z,14224.00
2019-04-16T07:55:47.762Z,14672.00
2019-04-16T07:56:47.846Z,14896.00
2019-04-16T07:57:47.824Z,15120.00
2019-04-16T07:58:47.858Z,15328.00
2019-04-16T07:59:47.888Z,15516.00
2019-04-16T08:00:47.921Z,15664.00
2019-04-16T08:01:48.778Z,15840.00
2019-04-16T08:02:50.682Z,15968.00
2019-04-16T08:03:48.019Z,16172.00
2019-04-16T08:04:48.052Z,16440.00
2019-04-16T08:05:48.084Z,16708.00
2019-04-16T08:06:48.116Z,17120.00
2019-04-16T08:07:49.826Z,17376.00
2019-04-16T08:08:48.184Z,16836.00
2019-04-16T08:09:48.217Z,17472.00
2019-04-16T08:10:48.252Z,17728.00
2019-04-16T08:11:48.335Z,17408.00
2019-04-16T08:12:48.369Z,17120.00
2019-04-16T08:13:48.353Z,16076.00
2019-04-16T08:14:48.386Z,16960.00
2019-04-16T08:15:48.420Z,16696.00
2019-04-16T08:16:48.453Z,15960.00
2019-04-16T08:17:48.488Z,15160.00
2019-04-16T08:18:48.523Z,15760.00
2019-04-16T08:19:49.381Z,15780.00
2019-04-16T08:21:00.526Z,15980.00
2019-04-16T08:21:48.627Z,16084.00
2019-04-16T08:22:48.662Z,17056.00
2019-04-16T08:23:51.462Z,16660.00
2019-04-16T08:24:48.729Z,16780.00
2019-04-16T08:25:55.094Z,17216.00
2019-04-16T08:26:48.800Z,17216.00
2019-04-16T08:27:50.839Z,17344.00
2019-04-16T08:28:48.870Z,17376.00
2019-04-16T08:29:48.911Z,17280.00
2019-04-16T08:30:48.941Z,17504.00
2019-04-16T08:31:48.974Z,17376.00
2019-04-16T08:32:49.775Z,17728.00
2019-04-16T08:33:49.044Z,17952.00
2019-04-16T08:34:49.080Z,18368.00
2019-04-16T08:35:49.115Z,18688.00
2019-04-16T08:36:49.149Z,18848.00
2019-04-16T08:37:49.653Z,18848.00
2019-04-16T08:38:49.244Z,18592.00
2019-04-16T08:39:49.258Z,19136.00
2019-04-16T08:40:49.291Z,19104.00
2019-04-16T08:41:52.153Z,19200.00
2019-04-16T08:42:49.364Z,19584.00
2019-04-16T08:43:49.397Z,20224.00
2019-04-16T08:44:49.433Z,20288.00
2019-04-16T08:45:49.468Z,21024.00
2019-04-16T08:46:49.503Z,21760.00
2019-04-16T08:47:49.541Z,21312.00
2019-04-16T08:48:52.499Z,22304.00
2019-04-16T08:49:53.777Z,22816.00
2019-04-16T08:50:49.648Z,23008.00
2019-04-16T08:51:49.683Z,22400.00
2019-04-16T08:52:49.716Z,22048.00
2019-04-16T08:53:49.753Z,21472.00
2019-04-16T08:54:51.202Z,21088.00
2019-04-16T08:55:49.825Z,21312.00
2019-04-16T08:56:49.864Z,21376.00
2019-04-16T08:57:49.897Z,20896.00
2019-04-16T08:58:49.934Z,20832.00
2019-04-16T08:59:49.969Z,20640.00
2019-04-16T09:00:50.005Z,19712.00
2019-04-16T09:01:51.428Z,20192.00
2019-04-16T09:02:50.078Z,20704.00
2019-04-16T09:03:50.115Z,21248.00
2019-04-16T09:04:50.152Z,21952.00
2019-04-16T09:05:50.186Z,22304.00
2019-04-16T09:06:50.223Z,22336.00
2019-04-16T09:07:50.928Z,21344.00
2019-04-16T09:08:52.902Z,22368.00
2019-04-16T09:09:50.334Z,23520.00
2019-04-16T09:10:50.370Z,23072.00
2019-04-16T09:11:50.408Z,22272.00
2019-04-16T09:13:02.319Z,22688.00
2019-04-16T09:13:50.480Z,23584.00
2019-04-16T09:14:54.826Z,23584.00
2019-04-16T09:15:50.556Z,24032.00
2019-04-16T09:16:50.590Z,23872.00
2019-04-16T09:17:50.680Z,23104.00
2019-04-16T09:18:50.667Z,22720.00
2019-04-16T09:19:50.702Z,24320.00
2019-04-16T09:20:50.739Z,23616.00
2019-04-16T09:21:50.778Z,23456.00
2019-04-16T09:22:53.594Z,22944.00
2019-04-16T09:23:50.854Z,22496.00
2019-04-16T09:24:50.892Z,22528.00
2019-04-16T09:25:50.926Z,23008.00
2019-04-16T09:26:52.773Z,22592.00
2019-04-16T09:27:51.001Z,23232.00
2019-04-16T09:28:51.041Z,23776.00
2019-04-16T09:29:51.080Z,28768.00
2019-04-16T09:30:51.113Z,43744.00
2019-04-16T09:31:55.048Z,55552.00
2019-04-16T09:32:51.190Z,59424.00
2019-04-16T09:33:51.229Z,62432.00
2019-04-16T09:34:51.265Z,60928.00
2019-04-16T09:35:51.303Z,62880.00
2019-04-16T09:36:51.341Z,62304.00
2019-04-16T09:37:51.380Z,55424.00
2019-04-16T09:38:51.419Z,48736.00
2019-04-16T09:39:51.482Z,39200.00
2019-04-16T09:40:51.499Z,33600.00
2019-04-16T09:41:51.542Z,38240.00
2019-04-16T09:42:51.578Z,33248.00
2019-04-16T09:43:53.673Z,41120.00
2019-04-16T09:44:51.658Z,47424.00
2019-04-16T09:45:51.699Z,51552.00
2019-04-16T09:46:59.409Z,61856.00
2019-04-16T09:47:51.776Z,77664.00
2019-04-16T09:48:51.816Z,79104.00
2019-04-16T09:49:51.856Z,64736.00
2019-04-16T09:50:51.899Z,49056.00
2019-04-16T09:51:51.937Z,43520.00
2019-04-16T09:52:52.433Z,30688.00
2019-04-16T09:53:52.018Z,35456.00
2019-04-16T09:54:52.059Z,30848.00
2019-04-16T09:55:52.100Z,51232.00
2019-04-16T09:56:52.140Z,62112.00
2019-04-16T09:57:52.188Z,69376.00
2019-04-16T09:58:52.223Z,76224.00
2019-04-16T09:59:52.262Z,80096.00
2019-04-16T10:00:52.304Z,65280.00
2019-04-16T10:01:52.344Z,79168.00
2019-04-16T10:02:55.001Z,73728.00
2019-04-16T10:03:53.764Z,83808.00
2019-04-16T10:04:52.469Z,85088.00
2019-04-16T10:05:52.510Z,87616.00
2019-04-16T10:06:52.554Z,86560.00
2019-04-16T10:07:52.634Z,80416.00
2019-04-16T10:08:52.649Z,71968.00
2019-04-16T10:09:54.459Z,86624.00
2019-04-16T10:10:52.746Z,86752.00
2019-04-16T10:11:52.810Z,82144.00
2019-04-16T10:12:53.039Z,75744.00
2019-04-16T10:13:53.084Z,88032.00
2019-04-16T10:14:53.328Z,89248.00
2019-04-16T10:15:55.546Z,92096.00
2019-04-16T10:16:52.996Z,92704.00
2019-04-16T10:17:53.059Z,87360.00
2019-04-16T10:18:53.082Z,88416.00
2019-04-16T10:19:53.148Z,83648.00
2019-04-16T10:21:54.214Z,85408.00
2019-04-16T10:22:53.262Z,86592.00
2019-04-16T10:24:53.351Z,96256.00
2019-04-16T10:25:53.398Z,94080.00
2019-04-16T10:34:29.452Z,89792.00
2019-04-16T10:36:29.546Z,100256.00
2019-04-16T10:37:30.308Z,40096.00
2019-04-16T10:39:31.012Z,81856.00
2019-04-16T10:42:29.811Z,87872.00
2019-04-16T10:43:43.993Z,79680.00
2019-04-16T10:44:30.136Z,32064.00
2019-04-16T10:45:30.017Z,27808.00
2019-04-16T10:46:29.988Z,30240.00
2019-04-16T10:47:30.111Z,71296.00
2019-04-16T10:48:30.108Z,69600.00
2019-04-16T10:49:30.150Z,76224.00
2019-04-16T10:50:31.338Z,65216.00
2019-04-16T10:51:30.245Z,31072.00
2019-04-16T10:52:30.265Z,26496.00
2019-04-16T10:53:30.333Z,24832.00
2019-04-16T10:54:33.685Z,25408.00
2019-04-16T10:55:30.408Z,27776.00
2019-04-16T10:56:30.447Z,32544.00
2019-04-16T10:57:30.490Z,34880.00
2019-04-16T10:58:30.545Z,108832.00
2019-04-16T10:59:30.580Z,110496.00
2019-04-16T11:00:30.650Z,88352.00
2019-04-16T11:01:34.774Z,69376.00
2019-04-16T11:02:30.711Z,41600.00
2019-04-16T11:03:34.401Z,31776.00
2019-04-16T11:04:30.850Z,41920.00
2019-04-16T11:05:30.870Z,63040.00
2019-04-16T11:06:31.159Z,60896.00
2019-04-16T11:07:30.934Z,39136.00
2019-04-16T11:09:31.031Z,25856.00
2019-04-16T11:10:31.089Z,25120.00
2019-04-16T11:11:31.112Z,24032.00
2019-04-16T11:12:31.178Z,23936.00
2019-04-16T11:13:31.205Z,24384.00
2019-04-16T11:14:31.259Z,24096.00
2019-04-16T11:15:31.283Z,23808.00
2019-04-16T11:16:31.344Z,23808.00
2019-04-16T11:17:31.371Z,25536.00
2019-04-16T11:18:31.432Z,29568.00
2019-04-16T11:19:31.456Z,62400.00
2019-04-16T11:20:31.510Z,125408.00
2019-04-16T11:21:31.540Z,81728.00
2019-04-16T11:22:31.591Z,114496.00
2019-04-16T11:23:31.630Z,97440.00
2019-04-16T11:24:31.676Z,73984.00
2019-04-16T11:25:31.710Z,68128.00
2019-04-16T11:26:31.752Z,77888.00
2019-04-16T11:27:31.798Z,37760.00
2019-04-16T11:28:31.862Z,32832.00
2019-04-16T11:29:31.883Z,30144.00
2019-04-16T11:30:31.951Z,27232.00
2019-04-16T11:31:31.970Z,24608.00
2019-04-16T11:32:32.035Z,22752.00
2019-04-16T11:33:32.077Z,21984.00
2019-04-16T11:34:32.107Z,22560.00
2019-04-16T11:35:32.142Z,23776.00
2019-04-16T11:36:32.183Z,27104.00
2019-04-16T11:37:35.982Z,35328.00
2019-04-16T11:38:32.270Z,24448.00
2019-04-16T11:39:32.309Z,22688.00
2019-04-16T11:40:32.445Z,20992.00
2019-04-16T11:41:32.424Z,19776.00
2019-04-16T11:42:32.434Z,19744.00
2019-04-16T11:43:32.509Z,20512.00
2019-04-16T11:44:32.516Z,22464.00
2019-04-16T11:45:32.569Z,25440.00
2019-04-16T11:46:32.598Z,30496.00
2019-04-16T11:47:34.243Z,50080.00
2019-04-16T11:48:37.166Z,55264.00
2019-04-16T11:49:32.718Z,46368.00
2019-04-16T11:50:35.814Z,29952.00
2019-04-16T11:51:32.824Z,26080.00
2019-04-16T11:52:32.898Z,22240.00
2019-04-16T11:53:33.002Z,19264.00
2019-04-16T11:54:32.962Z,17280.00
2019-04-16T11:55:33.001Z,16020.00
2019-04-16T11:56:33.000Z,16180.00
2019-04-16T11:57:33.990Z,17216.00
2019-04-16T11:58:33.191Z,18272.00
2019-04-16T11:59:33.148Z,19040.00
2019-04-16T12:00:33.577Z,20960.00
2019-04-16T12:01:33.198Z,23296.00
2019-04-16T12:02:33.289Z,25120.00
2019-04-16T12:03:36.587Z,24896.00
2019-04-16T12:04:33.340Z,22656.00
2019-04-16T12:05:33.362Z,20928.00
2019-04-16T12:06:33.445Z,20320.00
2019-04-16T12:07:33.433Z,19328.00
2019-04-16T12:08:33.476Z,19136.00
2019-04-16T12:09:33.537Z,18208.00
2019-04-16T12:10:33.602Z,17696.00
2019-04-16T12:11:33.620Z,18144.00
2019-04-16T12:12:33.629Z,18912.00
2019-04-16T12:13:33.712Z,20672.00
2019-04-16T12:14:34.927Z,23040.00
2019-04-16T12:15:33.744Z,25920.00
2019-04-16T12:16:33.800Z,29216.00
2019-04-16T12:17:36.351Z,29248.00
2019-04-16T12:18:33.905Z,26272.00
2019-04-16T12:19:33.919Z,22624.00
2019-04-16T12:20:33.967Z,21312.00
2019-04-16T12:21:33.982Z,21440.00
2019-04-16T12:22:34.052Z,21216.00
2019-04-16T12:23:34.062Z,21312.00
2019-04-16T12:24:34.116Z,22112.00
2019-04-16T12:25:34.157Z,22912.00
2019-04-16T12:26:34.194Z,28480.00
2019-04-16T12:27:34.245Z,28320.00
2019-04-16T12:28:34.290Z,48544.00
2019-04-16T12:29:34.287Z,27488.00
2019-04-16T12:30:34.322Z,25344.00
2019-04-16T12:31:34.439Z,25216.00
2019-04-16T12:32:34.399Z,25056.00
2019-04-16T12:33:34.445Z,26272.00
2019-04-16T12:34:34.520Z,27296.00
2019-04-16T12:35:35.536Z,26688.00
2019-04-16T12:36:34.597Z,25984.00
2019-04-16T12:37:37.395Z,23296.00
2019-04-16T12:38:34.631Z,21472.00
2019-04-16T12:39:35.988Z,19488.00
2019-04-16T12:40:34.738Z,17664.00